sensor_id;sensor_type;location;lat;lon;timestamp;P1;durP1;ratioP1;P2;durP2;ratioP2
68319;SDS011;55168;51.120;17.024;2023-09-19T00:00:00;7.1;;;4.6;;
68319;SDS011;55168;51.120;17.024;2023-09-19T00:01:00;6.9;;;4.6;;
68319;SDS011;55168;51.120;17.024;2023-09-19T00:02:00;6.9;;;4.6;;
68319;SDS011;55168;51.120;17.024;2023-09-19T00:03:00;6.9;;;4.6;;
68319;SDS011;55168;51.120;17.024;2023-09-19T00:04:00;6.9;;;4.6;;
68319;SDS011;55168;51.120;17.024;2023-09-19T00:05:00;6.9;;;4.6;;
68319;SDS011;55168;51.120;17.024;2023-09-19T00:06:00;5.7;;;4.0;;
68319;SDS011;55168;51.120;17.024;2023-09-19T00:07:00;5.7;;;4.0;;
68319;SDS011;55168;51.120;17.024;2023-09-19T00:08:01;5.7;;;4.0;;
68319;SDS011;55168;51.120;17.024;2023-09-19T00:09:00;5.7;;;4.0;;
68319;SDS011;55168;51.120;17.024;2023-09-19T00:10:00;5.7;;;4.0;;
68319;SDS011;55168;51.120;17.024;2023-09-19T00:11:00;5.5;;;4.1;;
68319;SDS011;55168;51.120;17.024;2023-09-19T00:12:00;5.5;;;4.1;;
68319;SDS011;55168;51.120;17.024;2023-09-19T00:13:01;5.5;;;4.1;;
68319;SDS011;55168;51.120;17.024;2023-09-19T00:14:00;5.5;;;4.1;;
68319;SDS011;55168;51.120;17.024;2023-09-19T00:15:00;5.5;;;4.1;;
68319;SDS011;55168;51.120;17.024;2023-09-19T00:16:00;5.4;;;4.2;;
68319;SDS011;55168;51.120;17.024;2023-09-19T00:17:00;5.4;;;4.2;;
68319;SDS011;55168;51.120;17.024;2023-09-19T00:18:00;5.4;;;4.2;;
68319;SDS011;55168;51.120;17.024;2023-09-19T00:19:00;5.4;;;4.2;;
68319;SDS011;55168;51.120;17.024;2023-09-19T00:20:00;5.4;;;4.2;;
68319;SDS011;55168;51.120;17.024;2023-09-19T00:21:00;4.9;;;4.4;;
68319;SDS011;55168;51.120;17.024;2023-09-19T00:22:01;4.9;;;4.4;;
68319;SDS011;55168;51.120;17.024;2023-09-19T00:23:00;4.9;;;4.4;;
68319;SDS011;55168;51.120;17.024;2023-09-19T00:24:00;4.9;;;4.4;;
68319;SDS011;55168;51.120;17.024;2023-09-19T00:25:00;4.9;;;4.4;;
68319;SDS011;55168;51.120;17.024;2023-09-19T00:26:00;5.1;;;4.1;;
68319;SDS011;55168;51.120;17.024;2023-09-19T00:27:00;5.1;;;4.1;;
68319;SDS011;55168;51.120;17.024;2023-09-19T00:28:00;5.1;;;4.1;;
68319;SDS011;55168;51.120;17.024;2023-09-19T00:29:00;5.1;;;4.1;;
68319;SDS011;55168;51.120;17.024;2023-09-19T00:30:00;5.1;;;4.1;;
68319;SDS011;55168;51.120;17.024;2023-09-19T00:31:00;6.2;;;4.1;;
68319;SDS011;55168;51.120;17.024;2023-09-19T00:32:00;6.2;;;4.1;;
68319;SDS011;55168;51.120;17.024;2023-09-19T00:33:00;6.2;;;4.1;;
68319;SDS011;55168;51.120;17.024;2023-09-19T00:34:00;6.2;;;4.1;;
68319;SDS011;55168;51.120;17.024;2023-09-19T00:35:00;6.2;;;4.1;;
68319;SDS011;55168;51.120;17.024;2023-09-19T00:36:00;5.9;;;4.0;;
68319;SDS011;55168;51.120;17.024;2023-09-19T00:37:00;5.9;;;4.0;;
68319;SDS011;55168;51.120;17.024;2023-09-19T00:38:00;5.9;;;4.0;;
68319;SDS011;55168;51.120;17.024;2023-09-19T00:39:00;5.9;;;4.0;;
68319;SDS011;55168;51.120;17.024;2023-09-19T00:40:00;5.9;;;4.0;;
68319;SDS011;55168;51.120;17.024;2023-09-19T00:41:00;4.7;;;4.0;;
68319;SDS011;55168;51.120;17.024;2023-09-19T00:42:00;4.7;;;4.0;;
68319;SDS011;55168;51.120;17.024;2023-09-19T00:43:00;4.7;;;4.0;;
68319;SDS011;55168;51.120;17.024;2023-09-19T00:44:00;4.7;;;4.0;;
68319;SDS011;55168;51.120;17.024;2023-09-19T00:45:00;4.7;;;4.0;;
68319;SDS011;55168;51.120;17.024;2023-09-19T00:46:00;4.5;;;3.8;;
68319;SDS011;55168;51.120;17.024;2023-09-19T00:47:00;4.5;;;3.8;;
68319;SDS011;55168;51.120;17.024;2023-09-19T00:48:01;4.5;;;3.8;;
68319;SDS011;55168;51.120;17.024;2023-09-19T00:49:01;4.5;;;3.8;;
68319;SDS011;55168;51.120;17.024;2023-09-19T00:50:00;4.5;;;3.8;;
68319;SDS011;55168;51.120;17.024;2023-09-19T00:51:02;4.3;;;3.3;;
68319;SDS011;55168;51.120;17.024;2023-09-19T00:52:00;4.3;;;3.3;;
68319;SDS011;55168;51.120;17.024;2023-09-19T00:53:00;4.3;;;3.3;;
68319;SDS011;55168;51.120;17.024;2023-09-19T00:54:01;4.3;;;3.3;;
68319;SDS011;55168;51.120;17.024;2023-09-19T00:55:00;4.3;;;3.3;;
68319;SDS011;55168;51.120;17.024;2023-09-19T00:56:01;4.9;;;3.5;;
68319;SDS011;55168;51.120;17.024;2023-09-19T00:57:00;4.9;;;3.5;;
68319;SDS011;55168;51.120;17.024;2023-09-19T00:58:00;4.9;;;3.5;;
68319;SDS011;55168;51.120;17.024;2023-09-19T00:59:00;4.9;;;3.5;;
68319;SDS011;55168;51.120;17.024;2023-09-19T01:00:01;4.9;;;3.5;;
68319;SDS011;55168;51.120;17.024;2023-09-19T01:01:01;4.2;;;3.5;;
68319;SDS011;55168;51.120;17.024;2023-09-19T01:02:00;4.2;;;3.5;;
68319;SDS011;55168;51.120;17.024;2023-09-19T01:03:00;4.2;;;3.5;;
68319;SDS011;55168;51.120;17.024;2023-09-19T01:04:00;4.2;;;3.5;;
68319;SDS011;55168;51.120;17.024;2023-09-19T01:05:01;4.2;;;3.5;;
68319;SDS011;55168;51.120;17.024;2023-09-19T01:06:00;4.7;;;3.5;;
68319;SDS011;55168;51.120;17.024;2023-09-19T01:07:00;4.7;;;3.5;;
68319;SDS011;55168;51.120;17.024;2023-09-19T01:08:00;4.7;;;3.5;;
68319;SDS011;55168;51.120;17.024;2023-09-19T01:09:01;4.7;;;3.5;;
68319;SDS011;55168;51.120;17.024;2023-09-19T01:10:04;4.7;;;3.5;;
68319;SDS011;55168;51.120;17.024;2023-09-19T01:11:35;4.0;;;3.5;;
68319;SDS011;55168;51.120;17.024;2023-09-19T01:12:02;4.0;;;3.5;;
68319;SDS011;55168;51.120;17.024;2023-09-19T01:14:14;4.0;;;3.5;;
68319;SDS011;55168;51.120;17.024;2023-09-19T01:15:06;4.0;;;3.5;;
68319;SDS011;55168;51.120;17.024;2023-09-19T01:17:05;6.8;;;3.7;;
68319;SDS011;55168;51.120;17.024;2023-09-19T01:21:10;3.9;;;3.5;;
68319;SDS011;55168;51.120;17.024;2023-09-19T01:24:16;3.9;;;3.5;;
68319;SDS011;55168;51.120;17.024;2023-09-19T01:26:05;4.7;;;3.4;;
68319;SDS011;55168;51.120;17.024;2023-09-19T01:28:32;4.7;;;3.4;;
68319;SDS011;55168;51.120;17.024;2023-09-19T01:29:17;4.7;;;3.4;;
68319;SDS011;55168;51.120;17.024;2023-09-19T01:30:09;4.7;;;3.4;;
68319;SDS011;55168;51.120;17.024;2023-09-19T01:31:02;7.1;;;3.5;;
68319;SDS011;55168;51.120;17.024;2023-09-19T01:32:03;7.1;;;3.5;;
68319;SDS011;55168;51.120;17.024;2023-09-19T01:33:00;7.1;;;3.5;;
68319;SDS011;55168;51.120;17.024;2023-09-19T01:34:01;7.1;;;3.5;;
68319;SDS011;55168;51.120;17.024;2023-09-19T01:35:00;7.1;;;3.5;;
68319;SDS011;55168;51.120;17.024;2023-09-19T01:36:00;5.7;;;3.5;;
68319;SDS011;55168;51.120;17.024;2023-09-19T01:37:00;5.7;;;3.5;;
68319;SDS011;55168;51.120;17.024;2023-09-19T01:38:00;5.7;;;3.5;;
68319;SDS011;55168;51.120;17.024;2023-09-19T01:39:02;5.7;;;3.5;;
68319;SDS011;55168;51.120;17.024;2023-09-19T01:40:03;5.7;;;3.5;;
68319;SDS011;55168;51.120;17.024;2023-09-19T01:41:04;5.1;;;3.8;;
68319;SDS011;55168;51.120;17.024;2023-09-19T01:42:05;5.1;;;3.8;;
68319;SDS011;55168;51.120;17.024;2023-09-19T01:43:20;5.1;;;3.8;;
68319;SDS011;55168;51.120;17.024;2023-09-19T01:44:02;5.1;;;3.8;;
68319;SDS011;55168;51.120;17.024;2023-09-19T01:46:18;4.6;;;3.7;;
68319;SDS011;55168;51.120;17.024;2023-09-19T01:47:04;4.6;;;3.7;;
68319;SDS011;55168;51.120;17.024;2023-09-19T01:48:12;4.6;;;3.7;;
68319;SDS011;55168;51.120;17.024;2023-09-19T01:49:05;4.6;;;3.7;;
68319;SDS011;55168;51.120;17.024;2023-09-19T01:50:13;4.6;;;3.7;;
68319;SDS011;55168;51.120;17.024;2023-09-19T01:51:02;4.4;;;3.6;;
68319;SDS011;55168;51.120;17.024;2023-09-19T01:52:19;4.4;;;3.6;;
68319;SDS011;55168;51.120;17.024;2023-09-19T01:53:05;4.4;;;3.6;;
68319;SDS011;55168;51.120;17.024;2023-09-19T01:54:03;4.4;;;3.6;;
68319;SDS011;55168;51.120;17.024;2023-09-19T01:55:06;4.4;;;3.6;;
68319;SDS011;55168;51.120;17.024;2023-09-19T01:56:01;4.7;;;3.5;;
68319;SDS011;55168;51.120;17.024;2023-09-19T01:57:07;4.7;;;3.5;;
68319;SDS011;55168;51.120;17.024;2023-09-19T01:58:07;4.7;;;3.5;;
68319;SDS011;55168;51.120;17.024;2023-09-19T01:59:05;4.7;;;3.5;;
68319;SDS011;55168;51.120;17.024;2023-09-19T02:00:05;4.7;;;3.5;;
68319;SDS011;55168;51.120;17.024;2023-09-19T02:01:01;6.3;;;3.8;;
68319;SDS011;55168;51.120;17.024;2023-09-19T02:02:00;6.3;;;3.8;;
68319;SDS011;55168;51.120;17.024;2023-09-19T02:03:00;6.3;;;3.8;;
68319;SDS011;55168;51.120;17.024;2023-09-19T02:04:00;6.3;;;3.8;;
68319;SDS011;55168;51.120;17.024;2023-09-19T02:05:00;6.3;;;3.8;;
68319;SDS011;55168;51.120;17.024;2023-09-19T02:06:00;4.4;;;3.7;;
68319;SDS011;55168;51.120;17.024;2023-09-19T02:07:00;4.4;;;3.7;;
68319;SDS011;55168;51.120;17.024;2023-09-19T02:08:00;4.4;;;3.7;;
68319;SDS011;55168;51.120;17.024;2023-09-19T02:09:00;4.4;;;3.7;;
68319;SDS011;55168;51.120;17.024;2023-09-19T02:10:00;4.4;;;3.7;;
68319;SDS011;55168;51.120;17.024;2023-09-19T02:11:00;5.8;;;3.7;;
68319;SDS011;55168;51.120;17.024;2023-09-19T02:12:01;5.8;;;3.7;;
68319;SDS011;55168;51.120;17.024;2023-09-19T02:13:00;5.8;;;3.7;;
68319;SDS011;55168;51.120;17.024;2023-09-19T02:14:00;5.8;;;3.7;;
68319;SDS011;55168;51.120;17.024;2023-09-19T02:15:00;5.8;;;3.7;;
68319;SDS011;55168;51.120;17.024;2023-09-19T02:16:00;5.1;;;3.7;;
68319;SDS011;55168;51.120;17.024;2023-09-19T02:17:00;5.1;;;3.7;;
68319;SDS011;55168;51.120;17.024;2023-09-19T02:18:00;5.1;;;3.7;;
68319;SDS011;55168;51.120;17.024;2023-09-19T02:19:00;5.1;;;3.7;;
68319;SDS011;55168;51.120;17.024;2023-09-19T02:20:00;5.1;;;3.7;;
68319;SDS011;55168;51.120;17.024;2023-09-19T02:21:01;6.2;;;3.8;;
68319;SDS011;55168;51.120;17.024;2023-09-19T02:22:00;6.2;;;3.8;;
68319;SDS011;55168;51.120;17.024;2023-09-19T02:23:00;6.2;;;3.8;;
68319;SDS011;55168;51.120;17.024;2023-09-19T02:24:00;6.2;;;3.8;;
68319;SDS011;55168;51.120;17.024;2023-09-19T02:25:00;6.2;;;3.8;;
68319;SDS011;55168;51.120;17.024;2023-09-19T02:26:00;5.5;;;4.0;;
68319;SDS011;55168;51.120;17.024;2023-09-19T02:27:00;5.5;;;4.0;;
68319;SDS011;55168;51.120;17.024;2023-09-19T02:28:00;5.5;;;4.0;;
68319;SDS011;55168;51.120;17.024;2023-09-19T02:29:00;5.5;;;4.0;;
68319;SDS011;55168;51.120;17.024;2023-09-19T02:30:00;5.5;;;4.0;;
68319;SDS011;55168;51.120;17.024;2023-09-19T02:31:00;5.8;;;3.9;;
68319;SDS011;55168;51.120;17.024;2023-09-19T02:32:00;5.8;;;3.9;;
68319;SDS011;55168;51.120;17.024;2023-09-19T02:33:00;5.8;;;3.9;;
68319;SDS011;55168;51.120;17.024;2023-09-19T02:34:00;5.8;;;3.9;;
68319;SDS011;55168;51.120;17.024;2023-09-19T02:35:00;5.8;;;3.9;;
68319;SDS011;55168;51.120;17.024;2023-09-19T02:36:00;4.8;;;3.8;;
68319;SDS011;55168;51.120;17.024;2023-09-19T02:37:00;4.8;;;3.8;;
68319;SDS011;55168;51.120;17.024;2023-09-19T02:38:00;4.8;;;3.8;;
68319;SDS011;55168;51.120;17.024;2023-09-19T02:39:00;4.8;;;3.8;;
68319;SDS011;55168;51.120;17.024;2023-09-19T02:40:00;4.8;;;3.8;;
68319;SDS011;55168;51.120;17.024;2023-09-19T02:41:00;6.3;;;4.0;;
68319;SDS011;55168;51.120;17.024;2023-09-19T02:42:00;6.3;;;4.0;;
68319;SDS011;55168;51.120;17.024;2023-09-19T02:43:00;6.3;;;4.0;;
68319;SDS011;55168;51.120;17.024;2023-09-19T02:44:00;6.3;;;4.0;;
68319;SDS011;55168;51.120;17.024;2023-09-19T02:45:00;6.3;;;4.0;;
68319;SDS011;55168;51.120;17.024;2023-09-19T02:46:00;5.5;;;3.9;;
68319;SDS011;55168;51.120;17.024;2023-09-19T02:47:00;5.5;;;3.9;;
68319;SDS011;55168;51.120;17.024;2023-09-19T02:48:00;5.5;;;3.9;;
68319;SDS011;55168;51.120;17.024;2023-09-19T02:49:00;5.5;;;3.9;;
68319;SDS011;55168;51.120;17.024;2023-09-19T02:50:00;5.5;;;3.9;;
68319;SDS011;55168;51.120;17.024;2023-09-19T02:51:00;6.6;;;4.4;;
68319;SDS011;55168;51.120;17.024;2023-09-19T02:52:00;6.6;;;4.4;;
68319;SDS011;55168;51.120;17.024;2023-09-19T02:53:00;6.6;;;4.4;;
68319;SDS011;55168;51.120;17.024;2023-09-19T02:54:00;6.6;;;4.4;;
68319;SDS011;55168;51.120;17.024;2023-09-19T02:55:00;6.6;;;4.4;;
68319;SDS011;55168;51.120;17.024;2023-09-19T02:56:00;4.7;;;3.9;;
68319;SDS011;55168;51.120;17.024;2023-09-19T02:57:00;4.7;;;3.9;;
68319;SDS011;55168;51.120;17.024;2023-09-19T02:58:00;4.7;;;3.9;;
68319;SDS011;55168;51.120;17.024;2023-09-19T02:59:00;4.7;;;3.9;;
68319;SDS011;55168;51.120;17.024;2023-09-19T03:00:00;4.7;;;3.9;;
68319;SDS011;55168;51.120;17.024;2023-09-19T03:01:07;6.0;;;4.0;;
68319;SDS011;55168;51.120;17.024;2023-09-19T03:02:00;6.0;;;4.0;;
68319;SDS011;55168;51.120;17.024;2023-09-19T03:03:00;6.0;;;4.0;;
68319;SDS011;55168;51.120;17.024;2023-09-19T03:04:00;6.0;;;4.0;;
68319;SDS011;55168;51.120;17.024;2023-09-19T03:05:00;6.0;;;4.0;;
68319;SDS011;55168;51.120;17.024;2023-09-19T03:06:00;4.5;;;4.1;;
68319;SDS011;55168;51.120;17.024;2023-09-19T03:07:00;4.5;;;4.1;;
68319;SDS011;55168;51.120;17.024;2023-09-19T03:08:00;4.5;;;4.1;;
68319;SDS011;55168;51.120;17.024;2023-09-19T03:09:00;4.5;;;4.1;;
68319;SDS011;55168;51.120;17.024;2023-09-19T03:10:00;4.5;;;4.1;;
68319;SDS011;55168;51.120;17.024;2023-09-19T03:11:00;8.2;;;4.6;;
68319;SDS011;55168;51.120;17.024;2023-09-19T03:12:00;8.2;;;4.6;;
68319;SDS011;55168;51.120;17.024;2023-09-19T03:13:00;8.2;;;4.6;;
68319;SDS011;55168;51.120;17.024;2023-09-19T03:14:00;8.2;;;4.6;;
68319;SDS011;55168;51.120;17.024;2023-09-19T03:15:00;8.2;;;4.6;;
68319;SDS011;55168;51.120;17.024;2023-09-19T03:16:00;5.7;;;4.2;;
68319;SDS011;55168;51.120;17.024;2023-09-19T03:17:00;5.7;;;4.2;;
68319;SDS011;55168;51.120;17.024;2023-09-19T03:18:00;5.7;;;4.2;;
68319;SDS011;55168;51.120;17.024;2023-09-19T03:19:00;5.7;;;4.2;;
68319;SDS011;55168;51.120;17.024;2023-09-19T03:20:00;5.7;;;4.2;;
68319;SDS011;55168;51.120;17.024;2023-09-19T03:21:00;6.5;;;4.3;;
68319;SDS011;55168;51.120;17.024;2023-09-19T03:22:00;6.5;;;4.3;;
68319;SDS011;55168;51.120;17.024;2023-09-19T03:23:00;6.5;;;4.3;;
68319;SDS011;55168;51.120;17.024;2023-09-19T03:24:00;6.5;;;4.3;;
68319;SDS011;55168;51.120;17.024;2023-09-19T03:25:00;6.5;;;4.3;;
68319;SDS011;55168;51.120;17.024;2023-09-19T03:26:00;5.7;;;4.6;;
68319;SDS011;55168;51.120;17.024;2023-09-19T03:27:00;5.7;;;4.6;;
68319;SDS011;55168;51.120;17.024;2023-09-19T03:28:00;5.7;;;4.6;;
68319;SDS011;55168;51.120;17.024;2023-09-19T03:29:03;5.7;;;4.6;;
68319;SDS011;55168;51.120;17.024;2023-09-19T03:30:00;5.7;;;4.6;;
68319;SDS011;55168;51.120;17.024;2023-09-19T03:31:02;6.4;;;4.5;;
68319;SDS011;55168;51.120;17.024;2023-09-19T03:32:00;6.4;;;4.5;;
68319;SDS011;55168;51.120;17.024;2023-09-19T03:33:00;6.4;;;4.5;;
68319;SDS011;55168;51.120;17.024;2023-09-19T03:34:00;6.4;;;4.5;;
68319;SDS011;55168;51.120;17.024;2023-09-19T03:35:00;6.4;;;4.5;;
68319;SDS011;55168;51.120;17.024;2023-09-19T03:36:02;7.2;;;5.0;;
68319;SDS011;55168;51.120;17.024;2023-09-19T03:37:00;7.2;;;5.0;;
68319;SDS011;55168;51.120;17.024;2023-09-19T03:38:00;7.2;;;5.0;;
68319;SDS011;55168;51.120;17.024;2023-09-19T03:39:01;7.2;;;5.0;;
68319;SDS011;55168;51.120;17.024;2023-09-19T03:40:00;7.2;;;5.0;;
68319;SDS011;55168;51.120;17.024;2023-09-19T03:41:00;6.4;;;4.8;;
68319;SDS011;55168;51.120;17.024;2023-09-19T03:42:01;6.4;;;4.8;;
68319;SDS011;55168;51.120;17.024;2023-09-19T03:43:00;6.4;;;4.8;;
68319;SDS011;55168;51.120;17.024;2023-09-19T03:44:00;6.4;;;4.8;;
68319;SDS011;55168;51.120;17.024;2023-09-19T03:45:00;6.4;;;4.8;;
68319;SDS011;55168;51.120;17.024;2023-09-19T03:46:02;5.7;;;4.8;;
68319;SDS011;55168;51.120;17.024;2023-09-19T03:47:00;5.7;;;4.8;;
68319;SDS011;55168;51.120;17.024;2023-09-19T03:48:00;5.7;;;4.8;;
68319;SDS011;55168;51.120;17.024;2023-09-19T03:49:00;5.7;;;4.8;;
68319;SDS011;55168;51.120;17.024;2023-09-19T03:50:00;5.7;;;4.8;;
68319;SDS011;55168;51.120;17.024;2023-09-19T03:51:00;6.5;;;4.6;;
68319;SDS011;55168;51.120;17.024;2023-09-19T03:52:00;6.5;;;4.6;;
68319;SDS011;55168;51.120;17.024;2023-09-19T03:53:00;6.5;;;4.6;;
68319;SDS011;55168;51.120;17.024;2023-09-19T03:54:00;6.5;;;4.6;;
68319;SDS011;55168;51.120;17.024;2023-09-19T03:55:00;6.5;;;4.6;;
68319;SDS011;55168;51.120;17.024;2023-09-19T03:56:00;6.9;;;4.7;;
68319;SDS011;55168;51.120;17.024;2023-09-19T03:57:00;6.9;;;4.7;;
68319;SDS011;55168;51.120;17.024;2023-09-19T03:58:00;6.9;;;4.7;;
68319;SDS011;55168;51.120;17.024;2023-09-19T03:59:00;6.9;;;4.7;;
68319;SDS011;55168;51.120;17.024;2023-09-19T04:00:00;6.9;;;4.7;;
68319;SDS011;55168;51.120;17.024;2023-09-19T04:01:00;7.8;;;5.1;;
68319;SDS011;55168;51.120;17.024;2023-09-19T04:02:00;7.8;;;5.1;;
68319;SDS011;55168;51.120;17.024;2023-09-19T04:03:00;7.8;;;5.1;;
68319;SDS011;55168;51.120;17.024;2023-09-19T04:04:00;7.8;;;5.1;;
68319;SDS011;55168;51.120;17.024;2023-09-19T04:05:00;7.8;;;5.1;;
68319;SDS011;55168;51.120;17.024;2023-09-19T04:06:01;6.4;;;4.7;;
68319;SDS011;55168;51.120;17.024;2023-09-19T04:07:00;6.4;;;4.7;;
68319;SDS011;55168;51.120;17.024;2023-09-19T04:08:00;6.4;;;4.7;;
68319;SDS011;55168;51.120;17.024;2023-09-19T04:09:01;6.4;;;4.7;;
68319;SDS011;55168;51.120;17.024;2023-09-19T04:10:00;6.4;;;4.7;;
68319;SDS011;55168;51.120;17.024;2023-09-19T04:11:00;7.7;;;4.9;;
68319;SDS011;55168;51.120;17.024;2023-09-19T04:12:00;7.7;;;4.9;;
68319;SDS011;55168;51.120;17.024;2023-09-19T04:13:00;7.7;;;4.9;;
68319;SDS011;55168;51.120;17.024;2023-09-19T04:14:03;7.7;;;4.9;;
68319;SDS011;55168;51.120;17.024;2023-09-19T04:15:00;7.7;;;4.9;;
68319;SDS011;55168;51.120;17.024;2023-09-19T04:16:00;8.4;;;4.6;;
68319;SDS011;55168;51.120;17.024;2023-09-19T04:17:00;8.4;;;4.6;;
68319;SDS011;55168;51.120;17.024;2023-09-19T04:18:00;8.4;;;4.6;;
68319;SDS011;55168;51.120;17.024;2023-09-19T04:19:00;8.4;;;4.6;;
68319;SDS011;55168;51.120;17.024;2023-09-19T04:20:00;8.4;;;4.6;;
68319;SDS011;55168;51.120;17.024;2023-09-19T04:21:00;6.3;;;4.2;;
68319;SDS011;55168;51.120;17.024;2023-09-19T04:22:00;6.3;;;4.2;;
68319;SDS011;55168;51.120;17.024;2023-09-19T04:23:00;6.3;;;4.2;;
68319;SDS011;55168;51.120;17.024;2023-09-19T04:24:00;6.3;;;4.2;;
68319;SDS011;55168;51.120;17.024;2023-09-19T04:25:00;6.3;;;4.2;;
68319;SDS011;55168;51.120;17.024;2023-09-19T04:26:00;5.2;;;4.6;;
68319;SDS011;55168;51.120;17.024;2023-09-19T04:27:00;5.2;;;4.6;;
68319;SDS011;55168;51.120;17.024;2023-09-19T04:28:00;5.2;;;4.6;;
68319;SDS011;55168;51.120;17.024;2023-09-19T04:29:00;5.2;;;4.6;;
68319;SDS011;55168;51.120;17.024;2023-09-19T04:30:00;5.2;;;4.6;;
68319;SDS011;55168;51.120;17.024;2023-09-19T04:31:00;5.5;;;4.4;;
68319;SDS011;55168;51.120;17.024;2023-09-19T04:32:00;5.5;;;4.4;;
68319;SDS011;55168;51.120;17.024;2023-09-19T04:33:00;5.5;;;4.4;;
68319;SDS011;55168;51.120;17.024;2023-09-19T04:34:00;5.5;;;4.4;;
68319;SDS011;55168;51.120;17.024;2023-09-19T04:35:00;5.5;;;4.4;;
68319;SDS011;55168;51.120;17.024;2023-09-19T04:36:00;6.1;;;5.0;;
68319;SDS011;55168;51.120;17.024;2023-09-19T04:37:00;6.1;;;5.0;;
68319;SDS011;55168;51.120;17.024;2023-09-19T04:38:00;6.1;;;5.0;;
68319;SDS011;55168;51.120;17.024;2023-09-19T04:39:00;6.1;;;5.0;;
68319;SDS011;55168;51.120;17.024;2023-09-19T04:40:00;6.1;;;5.0;;
68319;SDS011;55168;51.120;17.024;2023-09-19T04:41:00;6.2;;;5.2;;
68319;SDS011;55168;51.120;17.024;2023-09-19T04:42:00;6.2;;;5.2;;
68319;SDS011;55168;51.120;17.024;2023-09-19T04:43:00;6.2;;;5.2;;
68319;SDS011;55168;51.120;17.024;2023-09-19T04:44:00;6.2;;;5.2;;
68319;SDS011;55168;51.120;17.024;2023-09-19T04:45:00;6.2;;;5.2;;
68319;SDS011;55168;51.120;17.024;2023-09-19T04:46:00;7.7;;;5.2;;
68319;SDS011;55168;51.120;17.024;2023-09-19T04:47:00;7.7;;;5.2;;
68319;SDS011;55168;51.120;17.024;2023-09-19T04:48:00;7.7;;;5.2;;
68319;SDS011;55168;51.120;17.024;2023-09-19T04:49:00;7.7;;;5.2;;
68319;SDS011;55168;51.120;17.024;2023-09-19T04:50:00;7.7;;;5.2;;
68319;SDS011;55168;51.120;17.024;2023-09-19T04:51:00;8.9;;;5.3;;
68319;SDS011;55168;51.120;17.024;2023-09-19T04:52:00;8.9;;;5.3;;
68319;SDS011;55168;51.120;17.024;2023-09-19T04:53:00;8.9;;;5.3;;
68319;SDS011;55168;51.120;17.024;2023-09-19T04:54:00;8.9;;;5.3;;
68319;SDS011;55168;51.120;17.024;2023-09-19T04:55:00;8.9;;;5.3;;
68319;SDS011;55168;51.120;17.024;2023-09-19T04:56:00;8.3;;;5.4;;
68319;SDS011;55168;51.120;17.024;2023-09-19T04:57:00;8.3;;;5.4;;
68319;SDS011;55168;51.120;17.024;2023-09-19T04:58:00;8.3;;;5.4;;
68319;SDS011;55168;51.120;17.024;2023-09-19T04:59:00;8.3;;;5.4;;
68319;SDS011;55168;51.120;17.024;2023-09-19T05:00:00;8.3;;;5.4;;
68319;SDS011;55168;51.120;17.024;2023-09-19T05:01:00;6.3;;;5.1;;
68319;SDS011;55168;51.120;17.024;2023-09-19T05:02:00;6.3;;;5.1;;
68319;SDS011;55168;51.120;17.024;2023-09-19T05:03:00;6.3;;;5.1;;
68319;SDS011;55168;51.120;17.024;2023-09-19T05:04:00;6.3;;;5.1;;
68319;SDS011;55168;51.120;17.024;2023-09-19T05:05:00;6.3;;;5.1;;
68319;SDS011;55168;51.120;17.024;2023-09-19T05:06:00;6.6;;;5.2;;
68319;SDS011;55168;51.120;17.024;2023-09-19T05:07:00;6.6;;;5.2;;
68319;SDS011;55168;51.120;17.024;2023-09-19T05:08:00;6.6;;;5.2;;
68319;SDS011;55168;51.120;17.024;2023-09-19T05:09:00;6.6;;;5.2;;
68319;SDS011;55168;51.120;17.024;2023-09-19T05:10:00;6.6;;;5.2;;
68319;SDS011;55168;51.120;17.024;2023-09-19T05:11:02;6.5;;;5.2;;
68319;SDS011;55168;51.120;17.024;2023-09-19T05:12:00;6.5;;;5.2;;
68319;SDS011;55168;51.120;17.024;2023-09-19T05:13:00;6.5;;;5.2;;
68319;SDS011;55168;51.120;17.024;2023-09-19T05:14:00;6.5;;;5.2;;
68319;SDS011;55168;51.120;17.024;2023-09-19T05:15:00;6.5;;;5.2;;
68319;SDS011;55168;51.120;17.024;2023-09-19T05:16:00;7.2;;;5.4;;
68319;SDS011;55168;51.120;17.024;2023-09-19T05:17:00;7.2;;;5.4;;
68319;SDS011;55168;51.120;17.024;2023-09-19T05:18:00;7.2;;;5.4;;
68319;SDS011;55168;51.120;17.024;2023-09-19T05:19:00;7.2;;;5.4;;
68319;SDS011;55168;51.120;17.024;2023-09-19T05:20:00;7.2;;;5.4;;
68319;SDS011;55168;51.120;17.024;2023-09-19T05:21:02;6.1;;;4.7;;
68319;SDS011;55168;51.120;17.024;2023-09-19T05:22:00;6.1;;;4.7;;
68319;SDS011;55168;51.120;17.024;2023-09-19T05:23:01;6.1;;;4.7;;
68319;SDS011;55168;51.120;17.024;2023-09-19T05:24:00;6.1;;;4.7;;
68319;SDS011;55168;51.120;17.024;2023-09-19T05:25:00;6.1;;;4.7;;
68319;SDS011;55168;51.120;17.024;2023-09-19T05:26:00;5.8;;;4.8;;
68319;SDS011;55168;51.120;17.024;2023-09-19T05:27:00;5.8;;;4.8;;
68319;SDS011;55168;51.120;17.024;2023-09-19T05:28:00;5.8;;;4.8;;
68319;SDS011;55168;51.120;17.024;2023-09-19T05:29:00;5.8;;;4.8;;
68319;SDS011;55168;51.120;17.024;2023-09-19T05:30:00;5.8;;;4.8;;
68319;SDS011;55168;51.120;17.024;2023-09-19T05:31:00;6.2;;;4.8;;
68319;SDS011;55168;51.120;17.024;2023-09-19T05:32:00;6.2;;;4.8;;
68319;SDS011;55168;51.120;17.024;2023-09-19T05:33:00;6.2;;;4.8;;
68319;SDS011;55168;51.120;17.024;2023-09-19T05:34:00;6.2;;;4.8;;
68319;SDS011;55168;51.120;17.024;2023-09-19T05:35:00;6.2;;;4.8;;
68319;SDS011;55168;51.120;17.024;2023-09-19T05:36:00;5.8;;;4.9;;
68319;SDS011;55168;51.120;17.024;2023-09-19T05:37:00;5.8;;;4.9;;
68319;SDS011;55168;51.120;17.024;2023-09-19T05:38:00;5.8;;;4.9;;
68319;SDS011;55168;51.120;17.024;2023-09-19T05:39:00;5.8;;;4.9;;
68319;SDS011;55168;51.120;17.024;2023-09-19T05:40:00;5.8;;;4.9;;
68319;SDS011;55168;51.120;17.024;2023-09-19T05:41:00;6.3;;;4.9;;
68319;SDS011;55168;51.120;17.024;2023-09-19T05:42:00;6.3;;;4.9;;
68319;SDS011;55168;51.120;17.024;2023-09-19T05:43:01;6.3;;;4.9;;
68319;SDS011;55168;51.120;17.024;2023-09-19T05:44:00;6.3;;;4.9;;
68319;SDS011;55168;51.120;17.024;2023-09-19T05:45:00;6.3;;;4.9;;
68319;SDS011;55168;51.120;17.024;2023-09-19T05:46:00;8.2;;;5.2;;
68319;SDS011;55168;51.120;17.024;2023-09-19T05:47:00;8.2;;;5.2;;
68319;SDS011;55168;51.120;17.024;2023-09-19T05:48:09;8.2;;;5.2;;
68319;SDS011;55168;51.120;17.024;2023-09-19T05:49:00;8.2;;;5.2;;
68319;SDS011;55168;51.120;17.024;2023-09-19T05:50:00;8.2;;;5.2;;
68319;SDS011;55168;51.120;17.024;2023-09-19T05:51:00;7.4;;;5.3;;
68319;SDS011;55168;51.120;17.024;2023-09-19T05:52:00;7.4;;;5.3;;
68319;SDS011;55168;51.120;17.024;2023-09-19T05:53:00;7.4;;;5.3;;
68319;SDS011;55168;51.120;17.024;2023-09-19T05:54:00;7.4;;;5.3;;
68319;SDS011;55168;51.120;17.024;2023-09-19T05:55:00;7.4;;;5.3;;
68319;SDS011;55168;51.120;17.024;2023-09-19T05:56:00;7.0;;;5.2;;
68319;SDS011;55168;51.120;17.024;2023-09-19T05:57:00;7.0;;;5.2;;
68319;SDS011;55168;51.120;17.024;2023-09-19T05:58:00;7.0;;;5.2;;
68319;SDS011;55168;51.120;17.024;2023-09-19T05:59:00;7.0;;;5.2;;
68319;SDS011;55168;51.120;17.024;2023-09-19T06:00:00;7.0;;;5.2;;
68319;SDS011;55168;51.120;17.024;2023-09-19T06:01:00;6.4;;;4.9;;
68319;SDS011;55168;51.120;17.024;2023-09-19T06:02:00;6.4;;;4.9;;
68319;SDS011;55168;51.120;17.024;2023-09-19T06:03:00;6.4;;;4.9;;
68319;SDS011;55168;51.120;17.024;2023-09-19T06:04:00;6.4;;;4.9;;
68319;SDS011;55168;51.120;17.024;2023-09-19T06:05:00;6.4;;;4.9;;
68319;SDS011;55168;51.120;17.024;2023-09-19T06:06:00;9.4;;;5.0;;
68319;SDS011;55168;51.120;17.024;2023-09-19T06:07:00;9.4;;;5.0;;
68319;SDS011;55168;51.120;17.024;2023-09-19T06:08:00;9.4;;;5.0;;
68319;SDS011;55168;51.120;17.024;2023-09-19T06:09:00;9.4;;;5.0;;
68319;SDS011;55168;51.120;17.024;2023-09-19T06:10:00;9.4;;;5.0;;
68319;SDS011;55168;51.120;17.024;2023-09-19T06:11:00;6.6;;;4.5;;
68319;SDS011;55168;51.120;17.024;2023-09-19T06:12:00;6.6;;;4.5;;
68319;SDS011;55168;51.120;17.024;2023-09-19T06:13:01;6.6;;;4.5;;
68319;SDS011;55168;51.120;17.024;2023-09-19T06:14:01;6.6;;;4.5;;
68319;SDS011;55168;51.120;17.024;2023-09-19T06:15:00;6.6;;;4.5;;
68319;SDS011;55168;51.120;17.024;2023-09-19T06:16:00;7.4;;;4.4;;